sensor_id;sensor_type;location;lat;lon;timestamp;P1;durP1;ratioP1;P2;durP2;ratioP2
14092;SDS011;7123;49.468;10.992;2023-02-28T00:00:38;2.53;;;2.30;;
14092;SDS011;7123;49.468;10.992;2023-02-28T00:03:05;3.30;;;2.90;;
14092;SDS011;7123;49.468;10.992;2023-02-28T00:05:32;3.23;;;2.57;;
14092;SDS011;7123;49.468;10.992;2023-02-28T00:07:59;2.90;;;2.60;;
14092;SDS011;7123;49.468;10.992;2023-02-28T00:10:28;3.73;;;2.63;;
14092;SDS011;7123;49.468;10.992;2023-02-28T00:12:56;3.27;;;2.30;;
14092;SDS011;7123;49.468;10.992;2023-02-28T00:15:26;2.53;;;2.33;;
14092;SDS011;7123;49.468;10.992;2023-02-28T00:17:53;4.50;;;2.57;;
14092;SDS011;7123;49.468;10.992;2023-02-28T00:20:20;3.83;;;2.50;;
14092;SDS011;7123;49.468;10.992;2023-02-28T00:22:48;2.57;;;2.37;;
14092;SDS011;7123;49.468;10.992;2023-02-28T00:25:18;5.43;;;2.20;;
14092;SDS011;7123;49.468;10.992;2023-02-28T00:27:47;2.50;;;2.30;;
14092;SDS011;7123;49.468;10.992;2023-02-28T00:30:18;2.47;;;2.27;;
14092;SDS011;7123;49.468;10.992;2023-02-28T00:32:46;2.83;;;1.90;;
14092;SDS011;7123;49.468;10.992;2023-02-28T00:35:13;2.80;;;2.50;;
14092;SDS011;7123;49.468;10.992;2023-02-28T00:37:40;2.60;;;2.40;;
14092;SDS011;7123;49.468;10.992;2023-02-28T00:40:08;3.07;;;2.40;;
14092;SDS011;7123;49.468;10.992;2023-02-28T00:42:37;2.77;;;2.30;;
14092;SDS011;7123;49.468;10.992;2023-02-28T00:45:04;2.50;;;2.30;;
14092;SDS011;7123;49.468;10.992;2023-02-28T00:47:31;2.23;;;2.10;;
14092;SDS011;7123;49.468;10.992;2023-02-28T00:49:58;3.13;;;2.60;;
14092;SDS011;7123;49.468;10.992;2023-02-28T00:52:26;2.73;;;2.40;;
14092;SDS011;7123;49.468;10.992;2023-02-28T00:54:53;2.87;;;2.47;;
14092;SDS011;7123;49.468;10.992;2023-02-28T00:57:19;2.80;;;2.50;;
14092;SDS011;7123;49.468;10.992;2023-02-28T00:59:46;6.10;;;2.60;;
14092;SDS011;7123;49.468;10.992;2023-02-28T01:02:13;4.73;;;2.57;;
14092;SDS011;7123;49.468;10.992;2023-02-28T01:04:40;3.00;;;2.37;;
14092;SDS011;7123;49.468;10.992;2023-02-28T01:07:06;3.03;;;2.60;;
14092;SDS011;7123;49.468;10.992;2023-02-28T01:09:33;5.60;;;2.60;;
14092;SDS011;7123;49.468;10.992;2023-02-28T01:12:00;3.10;;;2.80;;
14092;SDS011;7123;49.468;10.992;2023-02-28T01:14:26;4.60;;;2.70;;
14092;SDS011;7123;49.468;10.992;2023-02-28T01:16:53;4.00;;;2.60;;
14092;SDS011;7123;49.468;10.992;2023-02-28T01:19:20;2.83;;;2.53;;
14092;SDS011;7123;49.468;10.992;2023-02-28T01:21:46;4.03;;;2.43;;
14092;SDS011;7123;49.468;10.992;2023-02-28T01:24:13;3.97;;;2.97;;
14092;SDS011;7123;49.468;10.992;2023-02-28T01:26:40;4.47;;;3.10;;
14092;SDS011;7123;49.468;10.992;2023-02-28T01:29:06;4.23;;;2.80;;
14092;SDS011;7123;49.468;10.992;2023-02-28T01:31:33;3.80;;;2.77;;
14092;SDS011;7123;49.468;10.992;2023-02-28T01:34:00;4.10;;;3.00;;
14092;SDS011;7123;49.468;10.992;2023-02-28T01:36:27;3.10;;;2.57;;
14092;SDS011;7123;49.468;10.992;2023-02-28T01:38:54;4.40;;;2.93;;
14092;SDS011;7123;49.468;10.992;2023-02-28T01:41:25;2.60;;;2.40;;
14092;SDS011;7123;49.468;10.992;2023-02-28T01:43:59;4.07;;;3.17;;
14092;SDS011;7123;49.468;10.992;2023-02-28T01:46:34;4.53;;;2.97;;
14092;SDS011;7123;49.468;10.992;2023-02-28T01:49:15;3.10;;;2.80;;
14092;SDS011;7123;49.468;10.992;2023-02-28T01:51:44;3.33;;;3.03;;
14092;SDS011;7123;49.468;10.992;2023-02-28T01:54:20;4.07;;;3.03;;
14092;SDS011;7123;49.468;10.992;2023-02-28T01:56:52;4.53;;;3.13;;
14092;SDS011;7123;49.468;10.992;2023-02-28T01:59:27;3.83;;;2.57;;
14092;SDS011;7123;49.468;10.992;2023-02-28T02:01:57;3.43;;;2.83;;
14092;SDS011;7123;49.468;10.992;2023-02-28T02:04:26;4.27;;;2.97;;
14092;SDS011;7123;49.468;10.992;2023-02-28T02:06:58;3.70;;;2.97;;
14092;SDS011;7123;49.468;10.992;2023-02-28T02:09:25;4.47;;;2.93;;
14092;SDS011;7123;49.468;10.992;2023-02-28T02:11:52;3.43;;;3.10;;
14092;SDS011;7123;49.468;10.992;2023-02-28T02:14:29;3.47;;;2.83;;
14092;SDS011;7123;49.468;10.992;2023-02-28T02:23:27;3.40;;;2.97;;
14092;SDS011;7123;49.468;10.992;2023-02-28T02:25:56;4.57;;;2.90;;
14092;SDS011;7123;49.468;10.992;2023-02-28T02:36:49;3.23;;;2.77;;
14092;SDS011;7123;49.468;10.992;2023-02-28T02:41:51;3.57;;;2.83;;
14092;SDS011;7123;49.468;10.992;2023-02-28T02:44:24;3.90;;;3.10;;
14092;SDS011;7123;49.468;10.992;2023-02-28T02:46:55;3.50;;;2.67;;
14092;SDS011;7123;49.468;10.992;2023-02-28T02:49:31;4.47;;;2.87;;
14092;SDS011;7123;49.468;10.992;2023-02-28T02:52:01;9.87;;;3.13;;
14092;SDS011;7123;49.468;10.992;2023-02-28T02:54:33;3.30;;;3.00;;
14092;SDS011;7123;49.468;10.992;2023-02-28T02:57:04;3.93;;;3.30;;
14092;SDS011;7123;49.468;10.992;2023-02-28T02:59:36;3.87;;;3.30;;
14092;SDS011;7123;49.468;10.992;2023-02-28T03:02:06;4.23;;;3.40;;
14092;SDS011;7123;49.468;10.992;2023-02-28T03:04:42;4.80;;;3.53;;
14092;SDS011;7123;49.468;10.992;2023-02-28T03:07:14;3.90;;;3.47;;
14092;SDS011;7123;49.468;10.992;2023-02-28T03:09:49;4.27;;;3.50;;
14092;SDS011;7123;49.468;10.992;2023-02-28T03:12:18;6.10;;;3.33;;
14092;SDS011;7123;49.468;10.992;2023-02-28T03:14:56;3.67;;;2.97;;
14092;SDS011;7123;49.468;10.992;2023-02-28T03:23:31;3.87;;;3.07;;
14092;SDS011;7123;49.468;10.992;2023-02-28T03:26:04;4.57;;;3.40;;
14092;SDS011;7123;49.468;10.992;2023-02-28T03:29:02;4.13;;;3.50;;
14092;SDS011;7123;49.468;10.992;2023-02-28T03:31:37;6.30;;;4.03;;
14092;SDS011;7123;49.468;10.992;2023-02-28T03:34:08;6.47;;;4.07;;
14092;SDS011;7123;49.468;10.992;2023-02-28T03:36:40;5.83;;;3.50;;
14092;SDS011;7123;49.468;10.992;2023-02-28T03:39:17;6.77;;;3.80;;
14092;SDS011;7123;49.468;10.992;2023-02-28T03:42:22;5.53;;;3.73;;
14092;SDS011;7123;49.468;10.992;2023-02-28T03:44:53;5.73;;;3.70;;
14092;SDS011;7123;49.468;10.992;2023-02-28T03:47:38;4.07;;;3.67;;
14092;SDS011;7123;49.468;10.992;2023-02-28T03:56:03;4.10;;;3.70;;
14092;SDS011;7123;49.468;10.992;2023-02-28T03:58:50;5.87;;;4.13;;
14092;SDS011;7123;49.468;10.992;2023-02-28T04:01:37;5.27;;;4.07;;
14092;SDS011;7123;49.468;10.992;2023-02-28T04:04:07;5.90;;;4.00;;
14092;SDS011;7123;49.468;10.992;2023-02-28T04:06:36;5.97;;;4.03;;
14092;SDS011;7123;49.468;10.992;2023-02-28T04:09:04;5.07;;;3.90;;
14092;SDS011;7123;49.468;10.992;2023-02-28T04:11:33;5.30;;;4.07;;
14092;SDS011;7123;49.468;10.992;2023-02-28T04:14:03;4.57;;;3.67;;
14092;SDS011;7123;49.468;10.992;2023-02-28T04:16:31;6.73;;;3.93;;
14092;SDS011;7123;49.468;10.992;2023-02-28T04:19:02;4.80;;;3.87;;
14092;SDS011;7123;49.468;10.992;2023-02-28T04:21:37;8.57;;;4.30;;
14092;SDS011;7123;49.468;10.992;2023-02-28T04:24:07;13.23;;;4.30;;
14092;SDS011;7123;49.468;10.992;2023-02-28T04:26:41;6.13;;;4.57;;
14092;SDS011;7123;49.468;10.992;2023-02-28T04:29:10;6.53;;;4.57;;
14092;SDS011;7123;49.468;10.992;2023-02-28T04:31:38;5.70;;;4.20;;
14092;SDS011;7123;49.468;10.992;2023-02-28T04:34:05;6.20;;;4.60;;
14092;SDS011;7123;49.468;10.992;2023-02-28T04:36:32;5.93;;;4.10;;
14092;SDS011;7123;49.468;10.992;2023-02-28T04:39:00;6.13;;;4.07;;
14092;SDS011;7123;49.468;10.992;2023-02-28T04:41:27;5.33;;;4.47;;
14092;SDS011;7123;49.468;10.992;2023-02-28T04:43:57;6.67;;;4.20;;
14092;SDS011;7123;49.468;10.992;2023-02-28T04:46:24;6.53;;;4.87;;
14092;SDS011;7123;49.468;10.992;2023-02-28T04:48:51;7.20;;;4.30;;
14092;SDS011;7123;49.468;10.992;2023-02-28T04:51:18;4.60;;;4.07;;
14092;SDS011;7123;49.468;10.992;2023-02-28T04:53:46;6.93;;;4.50;;
14092;SDS011;7123;49.468;10.992;2023-02-28T04:56:15;6.83;;;4.40;;
14092;SDS011;7123;49.468;10.992;2023-02-28T04:58:42;4.70;;;4.20;;
14092;SDS011;7123;49.468;10.992;2023-02-28T05:03:45;6.83;;;4.57;;
14092;SDS011;7123;49.468;10.992;2023-02-28T05:06:12;6.73;;;4.10;;
14092;SDS011;7123;49.468;10.992;2023-02-28T05:08:39;6.67;;;4.47;;
14092;SDS011;7123;49.468;10.992;2023-02-28T05:11:07;5.00;;;4.30;;
14092;SDS011;7123;49.468;10.992;2023-02-28T05:13:48;5.37;;;4.03;;
14092;SDS011;7123;49.468;10.992;2023-02-28T05:16:15;5.93;;;4.60;;
14092;SDS011;7123;49.468;10.992;2023-02-28T05:18:43;4.77;;;4.13;;
14092;SDS011;7123;49.468;10.992;2023-02-28T05:21:29;8.27;;;4.53;;
14092;SDS011;7123;49.468;10.992;2023-02-28T05:24:15;4.83;;;4.33;;
14092;SDS011;7123;49.468;10.992;2023-02-28T05:26:49;6.07;;;4.33;;
14092;SDS011;7123;49.468;10.992;2023-02-28T05:29:18;5.93;;;4.57;;
14092;SDS011;7123;49.468;10.992;2023-02-28T05:31:45;5.63;;;4.40;;
14092;SDS011;7123;49.468;10.992;2023-02-28T05:34:12;7.00;;;5.00;;
14092;SDS011;7123;49.468;10.992;2023-02-28T05:36:41;4.93;;;4.30;;
14092;SDS011;7123;49.468;10.992;2023-02-28T05:39:08;6.63;;;4.73;;
14092;SDS011;7123;49.468;10.992;2023-02-28T05:41:39;7.00;;;5.03;;
14092;SDS011;7123;49.468;10.992;2023-02-28T05:44:07;7.50;;;4.80;;
14092;SDS011;7123;49.468;10.992;2023-02-28T05:46:34;6.93;;;4.70;;
14092;SDS011;7123;49.468;10.992;2023-02-28T05:49:01;8.27;;;4.73;;
14092;SDS011;7123;49.468;10.992;2023-02-28T05:51:28;7.67;;;4.93;;
14092;SDS011;7123;49.468;10.992;2023-02-28T05:53:58;8.50;;;5.27;;
14092;SDS011;7123;49.468;10.992;2023-02-28T05:56:26;9.13;;;5.23;;
14092;SDS011;7123;49.468;10.992;2023-02-28T05:58:53;6.70;;;4.90;;
14092;SDS011;7123;49.468;10.992;2023-02-28T06:04:25;7.07;;;4.90;;
14092;SDS011;7123;49.468;10.992;2023-02-28T06:06:57;8.73;;;5.30;;
14092;SDS011;7123;49.468;10.992;2023-02-28T06:09:24;9.33;;;5.20;;
14092;SDS011;7123;49.468;10.992;2023-02-28T06:11:51;8.73;;;5.37;;
14092;SDS011;7123;49.468;10.992;2023-02-28T06:14:18;8.73;;;5.47;;
14092;SDS011;7123;49.468;10.992;2023-02-28T06:16:46;6.90;;;5.30;;
14092;SDS011;7123;49.468;10.992;2023-02-28T06:19:13;9.23;;;5.57;;
14092;SDS011;7123;49.468;10.992;2023-02-28T06:21:41;7.37;;;5.13;;
14092;SDS011;7123;49.468;10.992;2023-02-28T06:24:08;8.00;;;5.60;;
14092;SDS011;7123;49.468;10.992;2023-02-28T06:26:35;8.93;;;5.43;;
14092;SDS011;7123;49.468;10.992;2023-02-28T06:29:02;8.67;;;5.20;;
14092;SDS011;7123;49.468;10.992;2023-02-28T06:31:29;9.00;;;5.90;;
14092;SDS011;7123;49.468;10.992;2023-02-28T06:33:56;7.13;;;4.87;;
14092;SDS011;7123;49.468;10.992;2023-02-28T06:36:23;10.37;;;5.33;;
14092;SDS011;7123;49.468;10.992;2023-02-28T06:38:50;9.03;;;5.60;;
14092;SDS011;7123;49.468;10.992;2023-02-28T06:41:21;8.93;;;5.20;;
14092;SDS011;7123;49.468;10.992;2023-02-28T06:43:49;9.33;;;5.20;;
14092;SDS011;7123;49.468;10.992;2023-02-28T06:46:16;10.17;;;5.47;;
14092;SDS011;7123;49.468;10.992;2023-02-28T06:48:43;7.57;;;5.40;;
14092;SDS011;7123;49.468;10.992;2023-02-28T06:51:12;7.63;;;5.80;;
14092;SDS011;7123;49.468;10.992;2023-02-28T06:53:46;13.97;;;5.57;;
14092;SDS011;7123;49.468;10.992;2023-02-28T06:56:13;9.23;;;6.07;;
14092;SDS011;7123;49.468;10.992;2023-02-28T06:58:41;10.00;;;5.93;;
14092;SDS011;7123;49.468;10.992;2023-02-28T07:01:13;9.50;;;5.30;;
14092;SDS011;7123;49.468;10.992;2023-02-28T07:03:40;9.10;;;5.57;;
14092;SDS011;7123;49.468;10.992;2023-02-28T07:06:06;11.87;;;5.73;;
14092;SDS011;7123;49.468;10.992;2023-02-28T07:08:33;7.73;;;5.13;;
14092;SDS011;7123;49.468;10.992;2023-02-28T07:11:02;7.13;;;5.10;;
14092;SDS011;7123;49.468;10.992;2023-02-28T07:13:29;8.60;;;5.03;;
14092;SDS011;7123;49.468;10.992;2023-02-28T07:15:57;8.50;;;5.50;;
14092;SDS011;7123;49.468;10.992;2023-02-28T07:18:25;11.17;;;5.47;;
14092;SDS011;7123;49.468;10.992;2023-02-28T07:20:52;14.67;;;5.47;;
14092;SDS011;7123;49.468;10.992;2023-02-28T07:23:20;9.53;;;6.33;;
14092;SDS011;7123;49.468;10.992;2023-02-28T07:25:47;8.87;;;6.00;;
14092;SDS011;7123;49.468;10.992;2023-02-28T07:28:14;10.80;;;5.50;;
14092;SDS011;7123;49.468;10.992;2023-02-28T07:30:41;6.97;;;5.47;;
14092;SDS011;7123;49.468;10.992;2023-02-28T07:33:09;7.90;;;5.57;;
14092;SDS011;7123;49.468;10.992;2023-02-28T07:35:35;8.87;;;5.27;;
14092;SDS011;7123;49.468;10.992;2023-02-28T07:38:02;8.00;;;5.50;;
14092;SDS011;7123;49.468;10.992;2023-02-28T07:40:29;12.03;;;5.80;;
14092;SDS011;7123;49.468;10.992;2023-02-28T07:42:58;7.97;;;5.57;;
14092;SDS011;7123;49.468;10.992;2023-02-28T07:45:32;8.97;;;5.70;;
14092;SDS011;7123;49.468;10.992;2023-02-28T07:48:00;7.63;;;6.00;;
14092;SDS011;7123;49.468;10.992;2023-02-28T07:50:27;12.00;;;6.10;;
14092;SDS011;7123;49.468;10.992;2023-02-28T07:52:58;8.73;;;5.97;;
14092;SDS011;7123;49.468;10.992;2023-02-28T07:55:25;10.87;;;6.27;;
14092;SDS011;7123;49.468;10.992;2023-02-28T07:57:52;8.30;;;6.07;;
14092;SDS011;7123;49.468;10.992;2023-02-28T08:00:20;9.43;;;6.03;;
14092;SDS011;7123;49.468;10.992;2023-02-28T08:02:47;12.50;;;6.63;;
14092;SDS011;7123;49.468;10.992;2023-02-28T08:05:14;10.83;;;6.53;;
14092;SDS011;7123;49.468;10.992;2023-02-28T08:07:41;12.33;;;6.43;;
14092;SDS011;7123;49.468;10.992;2023-02-28T08:10:08;11.03;;;6.10;;
14092;SDS011;7123;49.468;10.992;2023-02-28T08:12:36;8.13;;;5.93;;
14092;SDS011;7123;49.468;10.992;2023-02-28T08:15:02;11.37;;;6.80;;
14092;SDS011;7123;49.468;10.992;2023-02-28T08:17:29;12.77;;;6.43;;
14092;SDS011;7123;49.468;10.992;2023-02-28T08:19:57;10.87;;;7.07;;
14092;SDS011;7123;49.468;10.992;2023-02-28T08:22:24;9.57;;;6.47;;
14092;SDS011;7123;49.468;10.992;2023-02-28T08:24:51;10.00;;;6.80;;
14092;SDS011;7123;49.468;10.992;2023-02-28T08:27:17;10.30;;;6.97;;
14092;SDS011;7123;49.468;10.992;2023-02-28T08:29:44;13.40;;;6.83;;
14092;SDS011;7123;49.468;10.992;2023-02-28T08:32:11;9.47;;;6.57;;
14092;SDS011;7123;49.468;10.992;2023-02-28T08:34:54;12.00;;;6.30;;
14092;SDS011;7123;49.468;10.992;2023-02-28T08:37:20;9.23;;;6.30;;
14092;SDS011;7123;49.468;10.992;2023-02-28T08:39:47;12.43;;;6.67;;
14092;SDS011;7123;49.468;10.992;2023-02-28T08:42:14;9.73;;;6.60;;
14092;SDS011;7123;49.468;10.992;2023-02-28T08:44:40;9.30;;;6.63;;
14092;SDS011;7123;49.468;10.992;2023-02-28T08:47:07;15.47;;;6.70;;
14092;SDS011;7123;49.468;10.992;2023-02-28T08:49:34;9.30;;;6.67;;
14092;SDS011;7123;49.468;10.992;2023-02-28T08:52:01;10.53;;;6.70;;
14092;SDS011;7123;49.468;10.992;2023-02-28T08:54:27;10.63;;;6.50;;
14092;SDS011;7123;49.468;10.992;2023-02-28T08:56:57;9.53;;;6.13;;
14092;SDS011;7123;49.468;10.992;2023-02-28T08:59:23;12.23;;;7.17;;
14092;SDS011;7123;49.468;10.992;2023-02-28T09:01:50;10.70;;;6.47;;
14092;SDS011;7123;49.468;10.992;2023-02-28T09:04:16;11.10;;;6.83;;
14092;SDS011;7123;49.468;10.992;2023-02-28T09:06:46;11.27;;;6.67;;
14092;SDS011;7123;49.468;10.992;2023-02-28T09:09:15;9.17;;;6.70;;
14092;SDS011;7123;49.468;10.992;2023-02-28T09:11:41;11.93;;;7.10;;
14092;SDS011;7123;49.468;10.992;2023-02-28T09:14:11;13.20;;;7.07;;
14092;SDS011;7123;49.468;10.992;2023-02-28T09:16:37;10.30;;;6.57;;
14092;SDS011;7123;49.468;10.992;2023-02-28T09:19:05;10.43;;;6.63;;
14092;SDS011;7123;49.468;10.992;2023-02-28T09:21:31;7.70;;;5.80;;
14092;SDS011;7123;49.468;10.992;2023-02-28T09:23:58;9.97;;;6.60;;
14092;SDS011;7123;49.468;10.992;2023-02-28T09:26:26;9.30;;;6.63;;
14092;SDS011;7123;49.468;10.992;2023-02-28T09:29:08;10.40;;;7.10;;
14092;SDS011;7123;49.468;10.992;2023-02-28T09:31:35;10.50;;;6.87;;
14092;SDS011;7123;49.468;10.992;2023-02-28T09:34:03;12.27;;;6.40;;
14092;SDS011;7123;49.468;10.992;2023-02-28T09:36:30;8.60;;;6.43;;
14092;SDS011;7123;49.468;10.992;2023-02-28T09:39:10;10.00;;;7.03;;
14092;SDS011;7123;49.468;10.992;2023-02-28T09:41:40;10.13;;;6.67;;
14092;SDS011;7123;49.468;10.992;2023-02-28T09:44:22;9.33;;;6.43;;
14092;SDS011;7123;49.468;10.992;2023-02-28T09:47:40;10.80;;;7.47;;
14092;SDS011;7123;49.468;10.992;2023-02-28T09:50:11;15.07;;;6.70;;
14092;SDS011;7123;49.468;10.992;2023-02-28T09:52:56;18.73;;;8.90;;
14092;SDS011;7123;49.468;10.992;2023-02-28T09:55:32;13.63;;;8.37;;
14092;SDS011;7123;49.468;10.992;2023-02-28T09:58:15;10.57;;;6.90;;
14092;SDS011;7123;49.468;10.992;2023-02-28T10:03:57;8.97;;;6.50;;
14092;SDS011;7123;49.468;10.992;2023-02-28T10:06:30;11.83;;;6.23;;
14092;SDS011;7123;49.468;10.992;2023-02-28T10:09:07;8.87;;;6.23;;
14092;SDS011;7123;49.468;10.992;2023-02-28T10:11:40;8.77;;;5.97;;
14092;SDS011;7123;49.468;10.992;2023-02-28T10:16:42;9.20;;;6.40;;
14092;SDS011;7123;49.468;10.992;2023-02-28T10:19:22;8.30;;;6.20;;
14092;SDS011;7123;49.468;10.992;2023-02-28T10:22:05;9.77;;;6.30;;
14092;SDS011;7123;49.468;10.992;2023-02-28T10:24:46;10.03;;;6.30;;
14092;SDS011;7123;49.468;10.992;2023-02-28T10:27:18;9.67;;;5.90;;
14092;SDS011;7123;49.468;10.992;2023-02-28T10:29:47;8.80;;;6.17;;
14092;SDS011;7123;49.468;10.992;2023-02-28T10:32:17;12.50;;;6.23;;
14092;SDS011;7123;49.468;10.992;2023-02-28T10:34:58;9.03;;;6.50;;
14092;SDS011;7123;49.468;10.992;2023-02-28T10:37:38;8.83;;;6.17;;
14092;SDS011;7123;49.468;10.992;2023-02-28T10:45:22;11.13;;;5.93;;
14092;SDS011;7123;49.468;10.992;2023-02-28T10:47:51;8.80;;;5.50;;
14092;SDS011;7123;49.468;10.992;2023-02-28T10:53:17;10.60;;;5.37;;
14092;SDS011;7123;49.468;10.992;2023-02-28T11:01:46;9.03;;;6.23;;
14092;SDS011;7123;49.468;10.992;2023-02-28T11:07:03;9.70;;;5.90;;
14092;SDS011;7123;49.468;10.992;2023-02-28T11:09:54;8.47;;;5.80;;
14092;SDS011;7123;49.468;10.992;2023-02-28T11:14:53;9.67;;;6.33;;
14092;SDS011;7123;49.468;10.992;2023-02-28T11:17:28;7.80;;;5.70;;
14092;SDS011;7123;49.468;10.992;2023-02-28T11:20:00;8.10;;;6.03;;
14092;SDS011;7123;49.468;10.992;2023-02-28T11:22:31;8.33;;;6.07;;
14092;SDS011;7123;49.468;10.992;2023-02-28T11:25:03;9.03;;;5.57;;
14092;SDS011;7123;49.468;10.992;2023-02-28T11:30:24;7.77;;;5.80;;
14092;SDS011;7123;49.468;10.992;2023-02-28T11:32:52;9.40;;;5.97;;
14092;SDS011;7123;49.468;10.992;2023-02-28T11:37:52;8.03;;;5.70;;
14092;SDS011;7123;49.468;10.992;2023-02-28T11:40:21;8.43;;;5.73;;
14092;SDS011;7123;49.468;10.992;2023-02-28T11:48:18;12.93;;;6.23;;
14092;SDS011;7123;49.468;10.992;2023-02-28T11:53:35;8.63;;;6.27;;
14092;SDS011;7123;49.468;10.992;2023-02-28T11:56:06;8.80;;;6.53;;
14092;SDS011;7123;49.468;10.992;2023-02-28T12:01:28;11.67;;;5.77;;
14092;SDS011;7123;49.468;10.992;2023-02-28T12:04:17;9.60;;;6.07;;
14092;SDS011;7123;49.468;10.992;2023-02-28T12:15:13;9.03;;;6.40;;
14092;SDS011;7123;49.468;10.992;2023-02-28T12:28:14;10.67;;;5.87;;
14092;SDS011;7123;49.468;10.992;2023-02-28T12:31:20;9.07;;;5.70;;
14092;SDS011;7123;49.468;10.992;2023-02-28T12:33:50;6.93;;;5.40;;
14092;SDS011;7123;49.468;10.992;2023-02-28T12:36:20;7.20;;;5.47;;
14092;SDS011;7123;49.468;10.992;2023-02-28T12:38:53;6.90;;;5.43;;
14092;SDS011;7123;49.468;10.992;2023-02-28T12:41:36;8.83;;;5.73;;
14092;SDS011;7123;49.468;10.992;2023-02-28T12:44:13;8.03;;;5.53;;
14092;SDS011;7123;49.468;10.992;2023-02-28T12:46:54;7.20;;;5.30;;
14092;SDS011;7123;49.468;10.992;2023-02-28T12:49:26;8.27;;;6.00;;
14092;SDS011;7123;49.468;10.992;2023-02-28T12:51:57;8.63;;;6.10;;
14092;SDS011;7123;49.468;10.992;2023-02-28T12:54:32;6.40;;;5.37;;
14092;SDS011;7123;49.468;10.992;2023-02-28T12:57:07;9.27;;;6.00;;
14092;SDS011;7123;49.468;10.992;2023-02-28T12:59:54;10.60;;;6.37;;
14092;SDS011;7123;49.468;10.992;2023-02-28T13:11:05;10.47;;;6.17;;
14092;SDS011;7123;49.468;10.992;2023-02-28T13:13:44;9.53;;;5.87;;
14092;SDS011;7123;49.468;10.992;2023-02-28T13:16:11;9.57;;;6.77;;
14092;SDS011;7123;49.468;10.992;2023-02-28T13:18:45;9.53;;;6.33;;
14092;SDS011;7123;49.468;10.992;2023-02-28T13:21:29;8.63;;;5.97;;
14092;SDS011;7123;49.468;10.992;2023-02-28T13:24:01;8.47;;;5.93;;
14092;SDS011;7123;49.468;10.992;2023-02-28T13:29:04;8.10;;;6.20;;
14092;SDS011;7123;49.468;10.992;2023-02-28T13:34:32;11.47;;;6.20;;
14092;SDS011;7123;49.468;10.992;2023-02-28T13:37:30;10.53;;;6.73;;
14092;SDS011;7123;49.468;10.992;2023-02-28T13:40:26;9.13;;;6.53;;
14092;SDS011;7123;49.468;10.992;2023-02-28T13:42:55;9.20;;;6.73;;
14092;SDS011;7123;49.468;10.992;2023-02-28T13:45:26;8.83;;;6.43;;
14092;SDS011;7123;49.468;10.992;2023-02-28T13:47:54;8.93;;;6.37;;
14092;SDS011;7123;49.468;10.992;2023-02-28T13:58:25;8.90;;;6.60;;
14092;SDS011;7123;49.468;10.992;2023-02-28T14:08:36;9.07;;;6.33;;
14092;SDS011;7123;49.468;10.992;2023-02-28T14:11:04;8.77;;;6.03;;
14092;SDS011;7123;49.468;10.992;2023-02-28T14:13:42;10.77;;;6.87;;
14092;SDS011;7123;49.468;10.992;2023-02-28T14:16:15;11.53;;;6.97;;
14092;SDS011;7123;49.468;10.992;2023-02-28T14:18:50;12.53;;;7.10;;
14092;SDS011;7123;49.468;10.992;2023-02-28T14:29:07;9.00;;;6.43;;
14092;SDS011;7123;49.468;10.992;2023-02-28T14:34:37;11.03;;;7.17;;
14092;SDS011;7123;49.468;10.992;2023-02-28T14:37:09;9.70;;;6.73;;
14092;SDS011;7123;49.468;10.992;2023-02-28T14:39:41;9.63;;;6.90;;
14092;SDS011;7123;49.468;10.992;2023-02-28T14:45:19;8.97;;;6.50;;
14092;SDS011;7123;49.468;10.992;2023-02-28T14:47:47;9.23;;;6.60;;
14092;SDS011;7123;49.468;10.992;2023-02-28T14:50:17;9.23;;;6.80;;
14092;SDS011;7123;49.468;10.992;2023-02-28T14:52:52;9.50;;;7.27;;
14092;SDS011;7123;49.468;10.992;2023-02-28T14:55:36;8.93;;;7.17;;
14092;SDS011;7123;49.468;10.992;2023-02-28T14:58:04;11.20;;;6.50;;
14092;SDS011;7123;49.468;10.992;2023-02-28T15:00:33;10.27;;;7.27;;
14092;SDS011;7123;49.468;10.992;2023-02-28T15:03:18;10.73;;;6.97;;
14092;SDS011;7123;49.468;10.992;2023-02-28T15:06:13;8.37;;;6.90;;
14092;SDS011;7123;49.468;10.992;2023-02-28T15:08:44;11.63;;;7.60;;
14092;SDS011;7123;49.468;10.992;2023-02-28T15:11:15;8.30;;;6.90;;
14092;SDS011;7123;49.468;10.992;2023-02-28T15:13:48;11.57;;;7.70;;
14092;SDS011;7123;49.468;10.992;2023-02-28T15:21:19;9.57;;;6.97;;
14092;SDS011;7123;49.468;10.992;2023-02-28T15:23:56;7.70;;;6.27;;
14092;SDS011;7123;49.468;10.992;2023-02-28T15:26:37;8.80;;;6.77;;
14092;SDS011;7123;49.468;10.992;2023-02-28T15:29:07;10.63;;;7.07;;
14092;SDS011;7123;49.468;10.992;2023-02-28T15:31:48;12.57;;;7.37;;
14092;SDS011;7123;49.468;10.992;2023-02-28T15:34:28;11.00;;;7.50;;
14092;SDS011;7123;49.468;10.992;2023-02-28T15:48:15;13.03;;;7.43;;
14092;SDS011;7123;49.468;10.992;2023-02-28T15:50:53;10.07;;;7.37;;
14092;SDS011;7123;49.468;10.992;2023-02-28T15:53:32;10.27;;;6.63;;
14092;SDS011;7123;49.468;10.992;2023-02-28T15:56:05;11.83;;;7.20;;
14092;SDS011;7123;49.468;10.992;2023-02-28T15:58:48;10.47;;;7.70;;
14092;SDS011;7123;49.468;10.992;2023-02-28T16:01:19;10.10;;;7.43;;
14092;SDS011;7123;49.468;10.992;2023-02-28T16:03:51;10.23;;;7.70;;
14092;SDS011;7123;49.468;10.992;2023-02-28T16:06:23;11.03;;;7.30;;
14092;SDS011;7123;49.468;10.992;2023-02-28T16:08:59;11.23;;;7.83;;
14092;SDS011;7123;49.468;10.992;2023-02-28T16:11:26;10.73;;;7.13;;
14092;SDS011;7123;49.468;10.992;2023-02-28T16:13:53;10.23;;;7.60;;
14092;SDS011;7123;49.468;10.992;2023-02-28T16:16:21;12.37;;;7.60;;
14092;SDS011;7123;49.468;10.992;2023-02-28T16:18:50;9.90;;;7.37;;
14092;SDS011;7123;49.468;10.992;2023-02-28T16:21:18;9.87;;;7.83;;
14092;SDS011;7123;49.468;10.992;2023-02-28T16:23:44;11.60;;;7.37;;
14092;SDS011;7123;49.468;10.992;2023-02-28T16:26:22;11.17;;;7.57;;
14092;SDS011;7123;49.468;10.992;2023-02-28T16:28:51;12.33;;;7.30;;
14092;SDS011;7123;49.468;10.992;2023-02-28T16:31:18;13.83;;;8.57;;
14092;SDS011;7123;49.468;10.992;2023-02-28T16:33:48;12.27;;;8.27;;
14092;SDS011;7123;49.468;10.992;2023-02-28T16:36:20;14.97;;;8.20;;
14092;SDS011;7123;49.468;10.992;2023-02-28T16:38:49;11.50;;;8.63;;
14092;SDS011;7123;49.468;10.992;2023-02-28T16:41:18;12.40;;;8.70;;
14092;SDS011;7123;49.468;10.992;2023-02-28T16:43:47;13.50;;;9.30;;
14092;SDS011;7123;49.468;10.992;2023-02-28T16:46:15;13.13;;;8.30;;
14092;SDS011;7123;49.468;10.992;2023-02-28T16:48:43;11.27;;;7.97;;
14092;SDS011;7123;49.468;10.992;2023-02-28T16:51:15;13.70;;;8.47;;
14092;SDS011;7123;49.468;10.992;2023-02-28T16:53:43;10.83;;;7.77;;
14092;SDS011;7123;49.468;10.992;2023-02-28T16:56:14;12.67;;;7.97;;
14092;SDS011;7123;49.468;10.992;2023-02-28T16:58:46;12.27;;;7.97;;
14092;SDS011;7123;49.468;10.992;2023-02-28T17:01:14;13.70;;;8.13;;
14092;SDS011;7123;49.468;10.992;2023-02-28T17:03:42;13.17;;;8.23;;
14092;SDS011;7123;49.468;10.992;2023-02-28T17:06:14;13.57;;;8.57;;
14092;SDS011;7123;49.468;10.992;2023-02-28T17:08:48;15.17;;;8.20;;
14092;SDS011;7123;49.468;10.992;2023-02-28T17:11:16;17.80;;;9.27;;
14092;SDS011;7123;49.468;10.992;2023-02-28T17:13:44;18.30;;;9.43;;
14092;SDS011;7123;49.468;10.992;2023-02-28T17:16:30;12.50;;;8.57;;
14092;SDS011;7123;49.468;10.992;2023-02-28T17:19:03;12.53;;;8.23;;
14092;SDS011;7123;49.468;10.992;2023-02-28T17:21:31;12.13;;;8.10;;
14092;SDS011;7123;49.468;10.992;2023-02-28T17:23:59;13.17;;;8.47;;
14092;SDS011;7123;49.468;10.992;2023-02-28T17:26:26;11.80;;;8.13;;
14092;SDS011;7123;49.468;10.992;2023-02-28T17:28:57;14.40;;;7.70;;
14092;SDS011;7123;49.468;10.992;2023-02-28T17:31:24;13.00;;;8.07;;
14092;SDS011;7123;49.468;10.992;2023-02-28T17:33:53;12.37;;;8.43;;
14092;SDS011;7123;49.468;10.992;2023-02-28T17:36:23;11.17;;;8.10;;
14092;SDS011;7123;49.468;10.992;2023-02-28T17:38:52;13.23;;;8.60;;
14092;SDS011;7123;49.468;10.992;2023-02-28T17:41:21;13.20;;;9.17;;